sensor_id;sensor_type;location;lat;lon;timestamp;P1;durP1;ratioP1;P2;durP2;ratioP2
37239;SDS011;23130;48.760;9.178;2023-06-10T00:02:10;5.93;;;5.40;;
37239;SDS011;23130;48.760;9.178;2023-06-10T00:04:35;8.73;;;6.53;;
37239;SDS011;23130;48.760;9.178;2023-06-10T00:07:02;8.07;;;6.00;;
37239;SDS011;23130;48.760;9.178;2023-06-10T00:09:29;7.55;;;6.18;;
37239;SDS011;23130;48.760;9.178;2023-06-10T00:11:54;8.82;;;6.22;;
37239;SDS011;23130;48.760;9.178;2023-06-10T00:14:20;7.47;;;6.25;;
37239;SDS011;23130;48.760;9.178;2023-06-10T00:16:45;7.05;;;6.35;;
37239;SDS011;23130;48.760;9.178;2023-06-10T00:19:11;8.88;;;6.10;;
37239;SDS011;23130;48.760;9.178;2023-06-10T00:21:39;6.45;;;5.75;;
37239;SDS011;23130;48.760;9.178;2023-06-10T00:26:31;8.45;;;5.50;;
37239;SDS011;23130;48.760;9.178;2023-06-10T00:28:58;7.10;;;5.65;;
37239;SDS011;23130;48.760;9.178;2023-06-10T00:31:24;9.80;;;5.57;;
37239;SDS011;23130;48.760;9.178;2023-06-10T00:33:51;6.72;;;5.53;;
37239;SDS011;23130;48.760;9.178;2023-06-10T00:36:17;6.30;;;5.70;;
37239;SDS011;23130;48.760;9.178;2023-06-10T00:38:42;6.43;;;5.57;;
37239;SDS011;23130;48.760;9.178;2023-06-10T00:41:08;8.35;;;6.40;;
37239;SDS011;23130;48.760;9.178;2023-06-10T00:43:33;7.05;;;5.60;;
37239;SDS011;23130;48.760;9.178;2023-06-10T00:45:59;6.63;;;5.93;;
37239;SDS011;23130;48.760;9.178;2023-06-10T00:48:25;10.18;;;6.43;;
37239;SDS011;23130;48.760;9.178;2023-06-10T00:50:51;6.60;;;5.88;;
37239;SDS011;23130;48.760;9.178;2023-06-10T00:53:17;6.95;;;6.25;;
37239;SDS011;23130;48.760;9.178;2023-06-10T00:55:43;8.07;;;6.43;;
37239;SDS011;23130;48.760;9.178;2023-06-10T00:58:09;7.03;;;5.78;;
37239;SDS011;23130;48.760;9.178;2023-06-10T01:00:35;6.97;;;5.32;;
37239;SDS011;23130;48.760;9.178;2023-06-10T01:03:01;6.90;;;6.07;;
37239;SDS011;23130;48.760;9.178;2023-06-10T01:05:27;7.65;;;6.45;;
37239;SDS011;23130;48.760;9.178;2023-06-10T01:10:55;7.23;;;6.37;;
37239;SDS011;23130;48.760;9.178;2023-06-10T01:13:24;6.90;;;6.15;;
37239;SDS011;23130;48.760;9.178;2023-06-10T01:15:53;8.00;;;6.80;;
37239;SDS011;23130;48.760;9.178;2023-06-10T01:18:20;9.00;;;5.60;;
37239;SDS011;23130;48.760;9.178;2023-06-10T01:20:46;6.82;;;5.78;;
37239;SDS011;23130;48.760;9.178;2023-06-10T01:23:13;6.63;;;5.95;;
37239;SDS011;23130;48.760;9.178;2023-06-10T01:25:45;8.35;;;6.03;;
37239;SDS011;23130;48.760;9.178;2023-06-10T01:33:47;7.43;;;5.80;;
37239;SDS011;23130;48.760;9.178;2023-06-10T01:36:16;8.15;;;6.88;;
37239;SDS011;23130;48.760;9.178;2023-06-10T01:38:44;7.13;;;6.28;;
37239;SDS011;23130;48.760;9.178;2023-06-10T01:41:11;8.73;;;6.28;;
37239;SDS011;23130;48.760;9.178;2023-06-10T01:43:39;6.63;;;5.93;;
37239;SDS011;23130;48.760;9.178;2023-06-10T01:46:05;10.55;;;6.78;;
37239;SDS011;23130;48.760;9.178;2023-06-10T01:48:32;8.20;;;7.00;;
37239;SDS011;23130;48.760;9.178;2023-06-10T01:50:58;8.65;;;7.30;;
37239;SDS011;23130;48.760;9.178;2023-06-10T01:53:24;7.90;;;7.05;;
37239;SDS011;23130;48.760;9.178;2023-06-10T01:55:49;6.57;;;5.85;;
37239;SDS011;23130;48.760;9.178;2023-06-10T01:58:15;7.55;;;6.20;;
37239;SDS011;23130;48.760;9.178;2023-06-10T02:00:41;6.50;;;5.72;;
37239;SDS011;23130;48.760;9.178;2023-06-10T02:03:07;6.65;;;5.68;;
37239;SDS011;23130;48.760;9.178;2023-06-10T02:05:32;7.57;;;5.97;;
37239;SDS011;23130;48.760;9.178;2023-06-10T02:07:58;7.70;;;6.25;;
37239;SDS011;23130;48.760;9.178;2023-06-10T02:10:23;8.57;;;6.35;;
37239;SDS011;23130;48.760;9.178;2023-06-10T02:12:49;8.57;;;6.20;;
37239;SDS011;23130;48.760;9.178;2023-06-10T02:15:15;7.63;;;6.30;;
37239;SDS011;23130;48.760;9.178;2023-06-10T02:17:41;7.63;;;6.20;;
37239;SDS011;23130;48.760;9.178;2023-06-10T02:20:06;7.70;;;6.25;;
37239;SDS011;23130;48.760;9.178;2023-06-10T02:22:35;7.95;;;6.35;;
37239;SDS011;23130;48.760;9.178;2023-06-10T02:25:01;8.77;;;6.35;;
37239;SDS011;23130;48.760;9.178;2023-06-10T02:27:27;7.80;;;5.72;;
37239;SDS011;23130;48.760;9.178;2023-06-10T02:29:52;6.53;;;5.22;;
37239;SDS011;23130;48.760;9.178;2023-06-10T02:32:18;6.53;;;5.38;;
37239;SDS011;23130;48.760;9.178;2023-06-10T02:34:43;7.65;;;6.40;;
37239;SDS011;23130;48.760;9.178;2023-06-10T02:37:09;6.75;;;5.53;;
37239;SDS011;23130;48.760;9.178;2023-06-10T02:39:34;7.68;;;6.70;;
37239;SDS011;23130;48.760;9.178;2023-06-10T02:42:00;6.60;;;5.82;;
37239;SDS011;23130;48.760;9.178;2023-06-10T02:44:26;8.10;;;6.60;;
37239;SDS011;23130;48.760;9.178;2023-06-10T02:46:51;8.52;;;6.97;;
37239;SDS011;23130;48.760;9.178;2023-06-10T02:49:17;6.85;;;5.55;;
37239;SDS011;23130;48.760;9.178;2023-06-10T02:51:42;6.93;;;5.78;;
37239;SDS011;23130;48.760;9.178;2023-06-10T02:54:08;6.20;;;5.53;;
37239;SDS011;23130;48.760;9.178;2023-06-10T02:56:33;10.88;;;5.93;;
37239;SDS011;23130;48.760;9.178;2023-06-10T02:58:59;7.10;;;6.38;;
37239;SDS011;23130;48.760;9.178;2023-06-10T03:01:25;6.57;;;5.85;;
37239;SDS011;23130;48.760;9.178;2023-06-10T03:03:51;7.30;;;5.88;;
37239;SDS011;23130;48.760;9.178;2023-06-10T03:06:17;6.68;;;5.70;;
37239;SDS011;23130;48.760;9.178;2023-06-10T03:08:43;7.40;;;5.50;;
37239;SDS011;23130;48.760;9.178;2023-06-10T03:11:10;7.40;;;5.00;;
37239;SDS011;23130;48.760;9.178;2023-06-10T03:13:36;7.32;;;5.55;;
37239;SDS011;23130;48.760;9.178;2023-06-10T03:16:03;7.75;;;5.68;;
37239;SDS011;23130;48.760;9.178;2023-06-10T03:18:29;7.13;;;5.80;;
37239;SDS011;23130;48.760;9.178;2023-06-10T03:20:55;6.00;;;5.38;;
37239;SDS011;23130;48.760;9.178;2023-06-10T03:23:21;10.88;;;5.85;;
37239;SDS011;23130;48.760;9.178;2023-06-10T03:25:47;7.53;;;5.30;;
37239;SDS011;23130;48.760;9.178;2023-06-10T03:28:13;6.05;;;5.20;;
37239;SDS011;23130;48.760;9.178;2023-06-10T03:30:39;6.22;;;5.07;;
37239;SDS011;23130;48.760;9.178;2023-06-10T03:33:04;6.57;;;5.80;;
37239;SDS011;23130;48.760;9.178;2023-06-10T03:35:30;6.55;;;5.13;;
37239;SDS011;23130;48.760;9.178;2023-06-10T03:37:57;6.10;;;5.03;;
37239;SDS011;23130;48.760;9.178;2023-06-10T03:40:23;7.05;;;5.30;;
37239;SDS011;23130;48.760;9.178;2023-06-10T03:42:48;6.55;;;4.95;;
37239;SDS011;23130;48.760;9.178;2023-06-10T03:45:14;5.53;;;4.97;;
37239;SDS011;23130;48.760;9.178;2023-06-10T03:47:40;6.25;;;4.60;;
37239;SDS011;23130;48.760;9.178;2023-06-10T03:50:06;5.45;;;4.93;;
37239;SDS011;23130;48.760;9.178;2023-06-10T03:52:33;9.23;;;5.95;;
37239;SDS011;23130;48.760;9.178;2023-06-10T03:55:00;6.43;;;5.32;;
37239;SDS011;23130;48.760;9.178;2023-06-10T03:57:25;5.97;;;4.95;;
37239;SDS011;23130;48.760;9.178;2023-06-10T03:59:51;5.18;;;4.50;;
37239;SDS011;23130;48.760;9.178;2023-06-10T04:02:17;5.80;;;4.95;;
37239;SDS011;23130;48.760;9.178;2023-06-10T04:04:42;6.85;;;5.47;;
37239;SDS011;23130;48.760;9.178;2023-06-10T04:07:08;5.68;;;4.70;;
37239;SDS011;23130;48.760;9.178;2023-06-10T04:09:34;5.43;;;4.65;;
37239;SDS011;23130;48.760;9.178;2023-06-10T04:12:03;6.28;;;5.18;;
37239;SDS011;23130;48.760;9.178;2023-06-10T04:14:31;8.38;;;5.75;;
37239;SDS011;23130;48.760;9.178;2023-06-10T04:16:56;5.45;;;4.63;;
37239;SDS011;23130;48.760;9.178;2023-06-10T04:19:22;6.45;;;4.65;;
37239;SDS011;23130;48.760;9.178;2023-06-10T04:21:47;5.22;;;4.70;;
37239;SDS011;23130;48.760;9.178;2023-06-10T04:24:13;7.47;;;4.57;;
37239;SDS011;23130;48.760;9.178;2023-06-10T04:26:38;5.60;;;4.47;;
37239;SDS011;23130;48.760;9.178;2023-06-10T04:29:04;6.00;;;4.20;;
37239;SDS011;23130;48.760;9.178;2023-06-10T04:31:30;5.22;;;4.45;;
37239;SDS011;23130;48.760;9.178;2023-06-10T04:33:55;5.03;;;4.55;;
37239;SDS011;23130;48.760;9.178;2023-06-10T04:36:21;4.60;;;4.20;;
37239;SDS011;23130;48.760;9.178;2023-06-10T04:38:46;4.78;;;4.25;;
37239;SDS011;23130;48.760;9.178;2023-06-10T04:41:12;4.50;;;4.07;;
37239;SDS011;23130;48.760;9.178;2023-06-10T04:43:38;7.70;;;5.03;;
37239;SDS011;23130;48.760;9.178;2023-06-10T04:46:03;4.70;;;4.20;;
37239;SDS011;23130;48.760;9.178;2023-06-10T04:48:29;5.28;;;4.32;;
37239;SDS011;23130;48.760;9.178;2023-06-10T04:50:54;5.38;;;4.88;;
37239;SDS011;23130;48.760;9.178;2023-06-10T04:53:21;4.72;;;4.00;;
37239;SDS011;23130;48.760;9.178;2023-06-10T04:55:47;4.95;;;4.55;;
37239;SDS011;23130;48.760;9.178;2023-06-10T04:58:13;5.10;;;4.53;;
37239;SDS011;23130;48.760;9.178;2023-06-10T05:00:39;5.65;;;4.40;;
37239;SDS011;23130;48.760;9.178;2023-06-10T05:03:05;4.97;;;4.57;;
37239;SDS011;23130;48.760;9.178;2023-06-10T05:05:30;6.00;;;3.88;;
37239;SDS011;23130;48.760;9.178;2023-06-10T05:07:56;4.78;;;4.30;;
37239;SDS011;23130;48.760;9.178;2023-06-10T05:10:22;5.40;;;4.63;;
37239;SDS011;23130;48.760;9.178;2023-06-10T05:12:47;6.13;;;4.65;;
37239;SDS011;23130;48.760;9.178;2023-06-10T05:15:13;4.82;;;4.13;;
37239;SDS011;23130;48.760;9.178;2023-06-10T05:17:39;5.82;;;4.15;;
37239;SDS011;23130;48.760;9.178;2023-06-10T05:20:04;5.53;;;4.97;;
37239;SDS011;23130;48.760;9.178;2023-06-10T05:22:31;7.20;;;4.50;;
37239;SDS011;23130;48.760;9.178;2023-06-10T05:24:57;5.05;;;4.55;;
37239;SDS011;23130;48.760;9.178;2023-06-10T05:27:22;5.00;;;4.50;;
37239;SDS011;23130;48.760;9.178;2023-06-10T05:29:48;4.95;;;4.45;;
37239;SDS011;23130;48.760;9.178;2023-06-10T05:32:14;5.55;;;5.00;;
37239;SDS011;23130;48.760;9.178;2023-06-10T05:34:40;5.35;;;4.85;;
37239;SDS011;23130;48.760;9.178;2023-06-10T05:37:05;7.35;;;4.82;;
37239;SDS011;23130;48.760;9.178;2023-06-10T05:39:31;5.40;;;4.90;;
37239;SDS011;23130;48.760;9.178;2023-06-10T05:41:56;4.75;;;4.35;;
37239;SDS011;23130;48.760;9.178;2023-06-10T05:44:23;4.85;;;4.45;;
37239;SDS011;23130;48.760;9.178;2023-06-10T05:46:50;5.28;;;4.78;;
37239;SDS011;23130;48.760;9.178;2023-06-10T05:49:15;5.90;;;5.05;;
37239;SDS011;23130;48.760;9.178;2023-06-10T05:51:41;4.88;;;4.47;;
37239;SDS011;23130;48.760;9.178;2023-06-10T05:54:06;5.30;;;4.65;;
37239;SDS011;23130;48.760;9.178;2023-06-10T05:56:32;4.88;;;4.47;;
37239;SDS011;23130;48.760;9.178;2023-06-10T05:58:58;5.45;;;5.03;;
37239;SDS011;23130;48.760;9.178;2023-06-10T06:01:23;5.88;;;5.05;;
37239;SDS011;23130;48.760;9.178;2023-06-10T06:03:49;4.93;;;4.40;;
37239;SDS011;23130;48.760;9.178;2023-06-10T06:06:15;5.53;;;4.50;;
37239;SDS011;23130;48.760;9.178;2023-06-10T06:08:40;5.40;;;4.53;;
37239;SDS011;23130;48.760;9.178;2023-06-10T06:11:06;4.78;;;4.28;;
37239;SDS011;23130;48.760;9.178;2023-06-10T06:13:32;5.32;;;4.63;;
37239;SDS011;23130;48.760;9.178;2023-06-10T06:15:57;4.57;;;4.18;;
37239;SDS011;23130;48.760;9.178;2023-06-10T06:18:23;11.00;;;5.25;;
37239;SDS011;23130;48.760;9.178;2023-06-10T06:20:49;5.13;;;4.45;;
37239;SDS011;23130;48.760;9.178;2023-06-10T06:23:14;5.88;;;5.13;;
37239;SDS011;23130;48.760;9.178;2023-06-10T06:25:40;4.68;;;4.15;;
37239;SDS011;23130;48.760;9.178;2023-06-10T06:28:06;4.85;;;4.43;;
37239;SDS011;23130;48.760;9.178;2023-06-10T06:30:32;5.25;;;4.75;;
37239;SDS011;23130;48.760;9.178;2023-06-10T06:32:58;5.65;;;5.07;;
37239;SDS011;23130;48.760;9.178;2023-06-10T06:35:24;5.10;;;4.57;;
37239;SDS011;23130;48.760;9.178;2023-06-10T06:37:50;5.78;;;5.28;;
37239;SDS011;23130;48.760;9.178;2023-06-10T06:40:16;6.97;;;4.43;;
37239;SDS011;23130;48.760;9.178;2023-06-10T06:42:41;4.47;;;4.07;;
37239;SDS011;23130;48.760;9.178;2023-06-10T06:45:07;5.45;;;4.55;;
37239;SDS011;23130;48.760;9.178;2023-06-10T06:47:33;5.25;;;4.75;;
37239;SDS011;23130;48.760;9.178;2023-06-10T06:49:58;5.20;;;4.15;;
37239;SDS011;23130;48.760;9.178;2023-06-10T06:52:24;5.45;;;4.95;;
37239;SDS011;23130;48.760;9.178;2023-06-10T06:54:49;4.82;;;4.30;;
37239;SDS011;23130;48.760;9.178;2023-06-10T06:57:15;6.18;;;5.07;;
37239;SDS011;23130;48.760;9.178;2023-06-10T06:59:41;5.18;;;4.68;;
37239;SDS011;23130;48.760;9.178;2023-06-10T07:02:06;5.30;;;4.80;;
37239;SDS011;23130;48.760;9.178;2023-06-10T07:04:32;5.32;;;3.80;;
37239;SDS011;23130;48.760;9.178;2023-06-10T07:06:57;4.80;;;3.85;;
37239;SDS011;23130;48.760;9.178;2023-06-10T07:09:23;5.22;;;4.72;;
37239;SDS011;23130;48.760;9.178;2023-06-10T07:11:48;5.43;;;4.55;;
37239;SDS011;23130;48.760;9.178;2023-06-10T07:14:14;6.03;;;4.70;;
37239;SDS011;23130;48.760;9.178;2023-06-10T07:16:40;4.68;;;4.28;;
37239;SDS011;23130;48.760;9.178;2023-06-10T07:19:05;4.95;;;4.45;;
37239;SDS011;23130;48.760;9.178;2023-06-10T07:21:31;5.40;;;4.45;;
37239;SDS011;23130;48.760;9.178;2023-06-10T07:23:57;4.78;;;4.38;;
37239;SDS011;23130;48.760;9.178;2023-06-10T07:26:26;5.18;;;4.13;;
37239;SDS011;23130;48.760;9.178;2023-06-10T07:28:51;5.63;;;4.57;;
37239;SDS011;23130;48.760;9.178;2023-06-10T07:31:17;4.53;;;4.13;;
37239;SDS011;23130;48.760;9.178;2023-06-10T07:33:43;4.75;;;4.35;;
37239;SDS011;23130;48.760;9.178;2023-06-10T07:36:08;4.80;;;4.40;;
37239;SDS011;23130;48.760;9.178;2023-06-10T07:38:34;3.90;;;3.60;;
37239;SDS011;23130;48.760;9.178;2023-06-10T07:41:00;5.20;;;4.65;;
37239;SDS011;23130;48.760;9.178;2023-06-10T07:43:25;6.22;;;4.05;;
37239;SDS011;23130;48.760;9.178;2023-06-10T07:45:51;4.72;;;4.35;;
37239;SDS011;23130;48.760;9.178;2023-06-10T07:48:17;5.30;;;4.80;;
37239;SDS011;23130;48.760;9.178;2023-06-10T07:50:43;5.90;;;4.70;;
37239;SDS011;23130;48.760;9.178;2023-06-10T07:53:08;5.40;;;4.88;;
37239;SDS011;23130;48.760;9.178;2023-06-10T07:55:34;5.07;;;4.68;;
37239;SDS011;23130;48.760;9.178;2023-06-10T07:57:59;4.40;;;4.00;;
37239;SDS011;23130;48.760;9.178;2023-06-10T08:00:25;4.90;;;4.47;;
37239;SDS011;23130;48.760;9.178;2023-06-10T08:02:50;5.25;;;4.75;;
37239;SDS011;23130;48.760;9.178;2023-06-10T08:05:16;6.32;;;5.00;;
37239;SDS011;23130;48.760;9.178;2023-06-10T08:07:42;5.32;;;4.60;;
37239;SDS011;23130;48.760;9.178;2023-06-10T08:10:08;6.72;;;5.53;;
37239;SDS011;23130;48.760;9.178;2023-06-10T08:12:34;5.47;;;4.97;;
37239;SDS011;23130;48.760;9.178;2023-06-10T08:15:00;6.47;;;5.20;;
37239;SDS011;23130;48.760;9.178;2023-06-10T08:17:26;5.63;;;5.13;;
37239;SDS011;23130;48.760;9.178;2023-06-10T08:19:52;5.47;;;4.90;;
37239;SDS011;23130;48.760;9.178;2023-06-10T08:22:18;9.90;;;5.78;;
37239;SDS011;23130;48.760;9.178;2023-06-10T08:24:43;5.75;;;5.18;;
37239;SDS011;23130;48.760;9.178;2023-06-10T08:27:09;5.30;;;4.82;;
37239;SDS011;23130;48.760;9.178;2023-06-10T08:29:35;5.45;;;4.95;;
37239;SDS011;23130;48.760;9.178;2023-06-10T08:32:01;6.22;;;5.28;;
37239;SDS011;23130;48.760;9.178;2023-06-10T08:34:26;6.38;;;5.78;;
37239;SDS011;23130;48.760;9.178;2023-06-10T08:36:52;6.40;;;5.60;;
37239;SDS011;23130;48.760;9.178;2023-06-10T08:39:20;24.00;;;10.57;;
37239;SDS011;23130;48.760;9.178;2023-06-10T08:44:38;8.20;;;5.57;;
37239;SDS011;23130;48.760;9.178;2023-06-10T08:47:14;7.18;;;5.13;;
37239;SDS011;23130;48.760;9.178;2023-06-10T08:49:43;8.00;;;5.00;;
37239;SDS011;23130;48.760;9.178;2023-06-10T08:52:11;7.75;;;5.07;;
37239;SDS011;23130;48.760;9.178;2023-06-10T08:54:42;5.55;;;5.05;;
37239;SDS011;23130;48.760;9.178;2023-06-10T08:57:12;4.80;;;4.28;;
37239;SDS011;23130;48.760;9.178;2023-06-10T08:59:38;5.38;;;4.88;;
37239;SDS011;23130;48.760;9.178;2023-06-10T09:02:05;6.30;;;4.85;;
37239;SDS011;23130;48.760;9.178;2023-06-10T09:04:33;5.45;;;4.38;;
37239;SDS011;23130;48.760;9.178;2023-06-10T09:07:01;5.47;;;4.97;;
37239;SDS011;23130;48.760;9.178;2023-06-10T09:09:28;7.65;;;4.35;;
37239;SDS011;23130;48.760;9.178;2023-06-10T09:11:56;4.90;;;4.45;;
37239;SDS011;23130;48.760;9.178;2023-06-10T09:14:21;4.72;;;4.18;;
37239;SDS011;23130;48.760;9.178;2023-06-10T09:16:47;8.65;;;4.70;;
37239;SDS011;23130;48.760;9.178;2023-06-10T09:19:13;6.32;;;4.53;;
37239;SDS011;23130;48.760;9.178;2023-06-10T09:21:41;4.93;;;4.47;;
37239;SDS011;23130;48.760;9.178;2023-06-10T09:24:06;4.97;;;4.25;;
37239;SDS011;23130;48.760;9.178;2023-06-10T09:26:32;4.80;;;4.18;;
37239;SDS011;23130;48.760;9.178;2023-06-10T09:29:07;6.70;;;4.50;;
37239;SDS011;23130;48.760;9.178;2023-06-10T09:31:37;5.30;;;4.80;;
37239;SDS011;23130;48.760;9.178;2023-06-10T09:36:33;6.20;;;5.60;;
37239;SDS011;23130;48.760;9.178;2023-06-10T09:39:00;5.20;;;4.35;;
37239;SDS011;23130;48.760;9.178;2023-06-10T09:41:39;4.18;;;3.78;;
37239;SDS011;23130;48.760;9.178;2023-06-10T09:44:11;5.55;;;5.05;;
37239;SDS011;23130;48.760;9.178;2023-06-10T09:46:39;5.50;;;4.43;;
37239;SDS011;23130;48.760;9.178;2023-06-10T09:49:05;5.30;;;4.40;;
37239;SDS011;23130;48.760;9.178;2023-06-10T09:51:31;6.28;;;4.95;;
37239;SDS011;23130;48.760;9.178;2023-06-10T09:53:57;4.68;;;4.05;;
37239;SDS011;23130;48.760;9.178;2023-06-10T09:56:34;4.05;;;3.65;;
37239;SDS011;23130;48.760;9.178;2023-06-10T09:59:01;4.80;;;4.30;;
37239;SDS011;23130;48.760;9.178;2023-06-10T10:01:27;6.22;;;4.80;;
37239;SDS011;23130;48.760;9.178;2023-06-10T10:03:53;5.72;;;4.50;;
37239;SDS011;23130;48.760;9.178;2023-06-10T10:06:19;4.97;;;4.47;;
37239;SDS011;23130;48.760;9.178;2023-06-10T10:08:47;4.60;;;4.15;;
37239;SDS011;23130;48.760;9.178;2023-06-10T10:11:16;6.30;;;3.83;;
37239;SDS011;23130;48.760;9.178;2023-06-10T10:13:45;6.90;;;4.63;;
37239;SDS011;23130;48.760;9.178;2023-06-10T10:16:14;4.60;;;4.20;;
37239;SDS011;23130;48.760;9.178;2023-06-10T10:18:43;6.97;;;5.38;;
37239;SDS011;23130;48.760;9.178;2023-06-10T10:21:13;4.97;;;4.47;;
37239;SDS011;23130;48.760;9.178;2023-06-10T10:23:44;6.25;;;5.05;;
37239;SDS011;23130;48.760;9.178;2023-06-10T10:26:16;5.45;;;4.55;;
37239;SDS011;23130;48.760;9.178;2023-06-10T10:29:24;4.53;;;4.13;;
37239;SDS011;23130;48.760;9.178;2023-06-10T10:32:10;5.18;;;4.68;;
37239;SDS011;23130;48.760;9.178;2023-06-10T10:34:40;4.68;;;4.18;;
37239;SDS011;23130;48.760;9.178;2023-06-10T10:37:26;5.30;;;4.80;;
37239;SDS011;23130;48.760;9.178;2023-06-10T10:39:53;5.65;;;4.50;;
37239;SDS011;23130;48.760;9.178;2023-06-10T10:42:19;6.25;;;5.28;;
37239;SDS011;23130;48.760;9.178;2023-06-10T10:44:45;4.90;;;4.35;;
37239;SDS011;23130;48.760;9.178;2023-06-10T10:47:11;4.75;;;4.30;;
37239;SDS011;23130;48.760;9.178;2023-06-10T10:49:38;5.90;;;4.80;;
37239;SDS011;23130;48.760;9.178;2023-06-10T10:52:10;5.70;;;4.55;;
37239;SDS011;23130;48.760;9.178;2023-06-10T10:54:37;5.63;;;5.07;;
37239;SDS011;23130;48.760;9.178;2023-06-10T11:02:11;5.32;;;4.50;;
37239;SDS011;23130;48.760;9.178;2023-06-10T11:04:46;5.00;;;4.50;;
37239;SDS011;23130;48.760;9.178;2023-06-10T11:07:12;6.25;;;4.97;;
37239;SDS011;23130;48.760;9.178;2023-06-10T11:09:56;4.43;;;4.03;;
37239;SDS011;23130;48.760;9.178;2023-06-10T11:15:38;6.15;;;3.90;;
37239;SDS011;23130;48.760;9.178;2023-06-10T11:18:26;4.60;;;3.97;;
37239;SDS011;23130;48.760;9.178;2023-06-10T11:20:54;4.85;;;4.45;;
37239;SDS011;23130;48.760;9.178;2023-06-10T11:23:25;6.10;;;4.63;;
37239;SDS011;23130;48.760;9.178;2023-06-10T11:31:23;5.55;;;4.93;;
37239;SDS011;23130;48.760;9.178;2023-06-10T11:33:59;5.72;;;5.22;;
37239;SDS011;23130;48.760;9.178;2023-06-10T11:36:28;5.87;;;5.30;;
37239;SDS011;23130;48.760;9.178;2023-06-10T11:38:58;4.63;;;4.22;;
37239;SDS011;23130;48.760;9.178;2023-06-10T11:41:25;5.15;;;4.50;;
37239;SDS011;23130;48.760;9.178;2023-06-10T11:43:52;7.15;;;5.10;;
37239;SDS011;23130;48.760;9.178;2023-06-10T11:46:20;6.80;;;5.10;;
37239;SDS011;23130;48.760;9.178;2023-06-10T11:48:51;6.15;;;4.82;;
37239;SDS011;23130;48.760;9.178;2023-06-10T11:51:17;5.20;;;4.70;;
37239;SDS011;23130;48.760;9.178;2023-06-10T11:53:44;5.32;;;4.82;;
37239;SDS011;23130;48.760;9.178;2023-06-10T11:56:10;4.40;;;4.00;;
37239;SDS011;23130;48.760;9.178;2023-06-10T11:58:35;6.07;;;4.35;;
37239;SDS011;23130;48.760;9.178;2023-06-10T12:01:01;4.88;;;4.38;;
37239;SDS011;23130;48.760;9.178;2023-06-10T12:03:27;5.63;;;5.00;;
37239;SDS011;23130;48.760;9.178;2023-06-10T12:06:03;5.07;;;4.57;;
37239;SDS011;23130;48.760;9.178;2023-06-10T12:08:30;5.30;;;4.43;;
37239;SDS011;23130;48.760;9.178;2023-06-10T12:10:57;5.72;;;5.10;;
37239;SDS011;23130;48.760;9.178;2023-06-10T12:13:23;7.88;;;4.68;;
37239;SDS011;23130;48.760;9.178;2023-06-10T12:15:51;4.72;;;4.30;;
37239;SDS011;23130;48.760;9.178;2023-06-10T12:18:18;5.13;;;4.63;;
37239;SDS011;23130;48.760;9.178;2023-06-10T12:20:44;5.07;;;3.97;;
37239;SDS011;23130;48.760;9.178;2023-06-10T12:23:10;7.30;;;4.80;;
37239;SDS011;23130;48.760;9.178;2023-06-10T12:25:37;5.05;;;4.55;;
37239;SDS011;23130;48.760;9.178;2023-06-10T12:28:03;5.30;;;4.80;;
37239;SDS011;23130;48.760;9.178;2023-06-10T12:30:29;5.55;;;4.30;;
37239;SDS011;23130;48.760;9.178;2023-06-10T12:32:56;5.07;;;4.63;;
37239;SDS011;23130;48.760;9.178;2023-06-10T12:35:27;4.68;;;3.90;;
37239;SDS011;23130;48.760;9.178;2023-06-10T12:42:56;4.28;;;3.88;;
37239;SDS011;23130;48.760;9.178;2023-06-10T12:45:26;5.00;;;4.03;;
37239;SDS011;23130;48.760;9.178;2023-06-10T12:50:41;4.07;;;3.67;;
37239;SDS011;23130;48.760;9.178;2023-06-10T12:53:07;6.13;;;4.22;;
37239;SDS011;23130;48.760;9.178;2023-06-10T12:55:34;4.65;;;4.25;;
37239;SDS011;23130;48.760;9.178;2023-06-10T12:58:00;4.75;;;4.10;;
37239;SDS011;23130;48.760;9.178;2023-06-10T13:00:27;8.43;;;5.13;;
37239;SDS011;23130;48.760;9.178;2023-06-10T13:02:56;4.70;;;4.07;;
37239;SDS011;23130;48.760;9.178;2023-06-10T13:05:22;6.68;;;4.43;;
37239;SDS011;23130;48.760;9.178;2023-06-10T13:07:48;4.43;;;3.88;;
37239;SDS011;23130;48.760;9.178;2023-06-10T13:10:14;8.35;;;4.78;;
37239;SDS011;23130;48.760;9.178;2023-06-10T13:12:41;4.88;;;4.10;;
37239;SDS011;23130;48.760;9.178;2023-06-10T13:15:10;4.57;;;4.07;;
37239;SDS011;23130;48.760;9.178;2023-06-10T13:17:36;5.45;;;4.82;;
37239;SDS011;23130;48.760;9.178;2023-06-10T13:20:05;5.80;;;4.35;;
37239;SDS011;23130;48.760;9.178;2023-06-10T13:22:32;4.50;;;4.03;;
37239;SDS011;23130;48.760;9.178;2023-06-10T13:24:59;5.18;;;4.18;;
37239;SDS011;23130;48.760;9.178;2023-06-10T13:27:28;8.07;;;4.40;;
37239;SDS011;23130;48.760;9.178;2023-06-10T13:29:54;5.68;;;4.50;;
37239;SDS011;23130;48.760;9.178;2023-06-10T13:32:20;5.65;;;4.20;;
37239;SDS011;23130;48.760;9.178;2023-06-10T13:34:46;4.90;;;4.32;;
37239;SDS011;23130;48.760;9.178;2023-06-10T13:37:11;6.00;;;4.40;;
37239;SDS011;23130;48.760;9.178;2023-06-10T13:39:40;4.15;;;3.78;;
37239;SDS011;23130;48.760;9.178;2023-06-10T13:42:06;5.80;;;4.10;;
37239;SDS011;23130;48.760;9.178;2023-06-10T13:44:32;4.78;;;4.30;;
37239;SDS011;23130;48.760;9.178;2023-06-10T13:47:01;4.15;;;3.58;;
37239;SDS011;23130;48.760;9.178;2023-06-10T13:49:29;3.72;;;3.42;;
37239;SDS011;23130;48.760;9.178;2023-06-10T13:55:17;4.30;;;3.90;;
37239;SDS011;23130;48.760;9.178;2023-06-10T13:57:45;4.10;;;3.50;;
37239;SDS011;23130;48.760;9.178;2023-06-10T14:00:10;4.15;;;3.83;;
37239;SDS011;23130;48.760;9.178;2023-06-10T14:02:36;4.18;;;3.60;;
37239;SDS011;23130;48.760;9.178;2023-06-10T14:05:02;5.82;;;3.80;;
37239;SDS011;23130;48.760;9.178;2023-06-10T14:07:28;6.60;;;4.25;;
37239;SDS011;23130;48.760;9.178;2023-06-10T14:09:53;4.00;;;3.70;;
37239;SDS011;23130;48.760;9.178;2023-06-10T14:12:19;4.43;;;4.03;;
37239;SDS011;23130;48.760;9.178;2023-06-10T14:14:44;5.15;;;4.07;;
37239;SDS011;23130;48.760;9.178;2023-06-10T14:17:10;4.40;;;3.78;;
37239;SDS011;23130;48.760;9.178;2023-06-10T14:19:35;4.95;;;3.80;;
37239;SDS011;23130;48.760;9.178;2023-06-10T14:22:01;4.10;;;3.70;;
37239;SDS011;23130;48.760;9.178;2023-06-10T14:24:26;9.38;;;4.57;;
37239;SDS011;23130;48.760;9.178;2023-06-10T14:26:52;5.22;;;3.50;;
37239;SDS011;23130;48.760;9.178;2023-06-10T14:29:17;4.85;;;3.67;;
37239;SDS011;23130;48.760;9.178;2023-06-10T14:31:44;4.47;;;3.17;;
37239;SDS011;23130;48.760;9.178;2023-06-10T14:34:09;4.32;;;3.90;;
37239;SDS011;23130;48.760;9.178;2023-06-10T14:36:35;4.15;;;3.75;;
37239;SDS011;23130;48.760;9.178;2023-06-10T14:39:02;4.32;;;3.92;;
37239;SDS011;23130;48.760;9.178;2023-06-10T14:41:27;4.28;;;3.55;;
37239;SDS011;23130;48.760;9.178;2023-06-10T14:43:53;5.07;;;3.40;;
37239;SDS011;23130;48.760;9.178;2023-06-10T14:46:18;7.18;;;3.78;;
37239;SDS011;23130;48.760;9.178;2023-06-10T14:48:46;4.45;;;3.88;;
37239;SDS011;23130;48.760;9.178;2023-06-10T14:51:11;3.97;;;3.58;;
37239;SDS011;23130;48.760;9.178;2023-06-10T14:53:37;4.43;;;4.05;;
37239;SDS011;23130;48.760;9.178;2023-06-10T14:56:03;4.63;;;3.83;;
37239;SDS011;23130;48.760;9.178;2023-06-10T14:58:28;4.05;;;3.75;;
37239;SDS011;23130;48.760;9.178;2023-06-10T15:00:54;4.82;;;4.43;;
37239;SDS011;23130;48.760;9.178;2023-06-10T15:03:20;4.97;;;4.13;;
37239;SDS011;23130;48.760;9.178;2023-06-10T15:05:45;5.72;;;4.28;;
37239;SDS011;23130;48.760;9.178;2023-06-10T15:08:11;4.35;;;3.95;;
37239;SDS011;23130;48.760;9.178;2023-06-10T15:10:37;5.45;;;3.95;;
37239;SDS011;23130;48.760;9.178;2023-06-10T15:13:02;4.47;;;4.07;;
37239;SDS011;23130;48.760;9.178;2023-06-10T15:15:28;4.70;;;4.28;;
37239;SDS011;23130;48.760;9.178;2023-06-10T15:17:53;4.60;;;4.18;;
37239;SDS011;23130;48.760;9.178;2023-06-10T15:20:19;4.75;;;4.35;;
37239;SDS011;23130;48.760;9.178;2023-06-10T15:22:45;5.30;;;4.80;;
37239;SDS011;23130;48.760;9.178;2023-06-10T15:25:10;4.63;;;4.18;;
37239;SDS011;23130;48.760;9.178;2023-06-10T15:27:36;4.97;;;4.47;;